createdAt,value
2022-08-28T00:02:10.142Z,17.33
2022-08-28T00:06:12.794Z,17.38
2022-08-28T00:10:17.659Z,17.44
2022-08-28T00:14:21.145Z,17.42
2022-08-28T00:18:23.350Z,17.38
2022-08-28T00:22:25.732Z,17.42
2022-08-28T00:26:46.544Z,17.44
2022-08-28T00:30:51.642Z,17.46
2022-08-28T00:34:53.928Z,17.41
2022-08-28T00:38:59.983Z,17.39
2022-08-28T00:43:04.090Z,17.17
2022-08-28T00:47:06.531Z,16.72
2022-08-28T00:51:27.842Z,16.61
2022-08-28T00:55:30.445Z,16.67
2022-08-28T00:59:33.390Z,16.69
2022-08-28T01:03:37.153Z,16.57
2022-08-28T01:07:39.665Z,16.56
2022-08-28T01:11:44.446Z,16.63
2022-08-28T01:15:47.764Z,16.73
2022-08-28T01:19:58.445Z,16.84
2022-08-28T01:24:04.869Z,16.84
2022-08-28T01:28:12.425Z,16.76
2022-08-28T01:32:27.979Z,16.77
2022-08-28T01:36:30.805Z,16.59
2022-08-28T01:40:37.649Z,16.58
2022-08-28T01:44:39.805Z,16.73
2022-08-28T01:48:43.941Z,16.74
2022-08-28T01:52:46.308Z,16.65
2022-08-28T01:56:48.454Z,16.72
2022-08-28T02:00:51.305Z,16.77
2022-08-28T02:04:53.927Z,16.72
2022-08-28T02:08:56.217Z,16.65
2022-08-28T02:13:03.602Z,16.58
2022-08-28T02:17:07.315Z,16.35
2022-08-28T02:21:10.102Z,16.36
2022-08-28T02:25:13.968Z,16.45
2022-08-28T02:29:15.962Z,16.28
2022-08-28T02:33:18.828Z,16.18
2022-08-28T02:37:21.831Z,16.27
2022-08-28T02:41:24.322Z,16.37
2022-08-28T02:45:26.353Z,16.41
2022-08-28T02:49:31.257Z,16.36
2022-08-28T02:53:39.503Z,16.22
2022-08-28T02:57:42.871Z,16.23
2022-08-28T03:01:45.454Z,16.27
2022-08-28T03:05:47.539Z,16.27
2022-08-28T03:09:50.293Z,16.29
2022-08-28T03:13:52.840Z,16.28
2022-08-28T03:17:54.970Z,16.33
2022-08-28T03:21:57.091Z,16.35
2022-08-28T03:26:03.601Z,16.38
2022-08-28T03:30:08.000Z,16.39
2022-08-28T03:34:09.960Z,16.22
2022-08-28T03:38:12.546Z,16.22
2022-08-28T03:42:15.247Z,16.17
2022-08-28T03:46:20.670Z,16.19
2022-08-28T03:50:22.922Z,16.20
2022-08-28T03:54:26.761Z,16.24
2022-08-28T03:58:29.683Z,16.10
2022-08-28T04:02:31.697Z,16.11
2022-08-28T04:06:33.774Z,15.99
2022-08-28T04:10:38.329Z,15.86
2022-08-28T04:14:40.537Z,15.75
2022-08-28T04:18:43.483Z,15.66
2022-08-28T04:22:45.477Z,15.72
2022-08-28T04:26:47.571Z,15.76
2022-08-28T04:30:54.488Z,15.91
2022-08-28T04:34:56.548Z,15.96
2022-08-28T04:38:58.872Z,16.02
2022-08-28T04:43:00.877Z,16.05
2022-08-28T04:47:02.922Z,15.95
2022-08-28T04:51:10.677Z,16.02
2022-08-28T04:55:12.841Z,15.88
2022-08-28T04:59:14.955Z,15.99
2022-08-28T05:03:18.196Z,16.14
2022-08-28T05:07:20.336Z,16.10
2022-08-28T05:11:33.475Z,16.21
2022-08-28T05:15:51.830Z,16.36
2022-08-28T05:19:54.371Z,16.50
2022-08-28T05:23:57.904Z,16.72
2022-08-28T05:28:00.377Z,16.91
2022-08-28T05:32:04.212Z,16.87
2022-08-28T05:36:07.851Z,16.97
2022-08-28T05:40:10.830Z,17.14
2022-08-28T05:44:15.437Z,17.37
2022-08-28T05:48:17.492Z,17.47
2022-08-28T05:52:19.723Z,17.61
2022-08-28T05:56:25.486Z,17.76
2022-08-28T06:00:27.506Z,17.78
2022-08-28T06:04:30.124Z,17.73
2022-08-28T06:08:33.229Z,17.74
2022-08-28T06:12:35.450Z,17.67
2022-08-28T06:16:40.196Z,17.78
2022-08-28T06:20:45.146Z,18.00
2022-08-28T06:24:47.223Z,18.30
2022-08-28T06:28:49.668Z,18.58
2022-08-28T06:32:51.816Z,18.85
2022-08-28T06:36:55.072Z,19.04
2022-08-28T06:40:57.763Z,19.22
2022-08-28T06:44:59.815Z,19.50
2022-08-28T06:49:03.935Z,19.78
2022-08-28T06:53:07.191Z,20.02
2022-08-28T06:57:10.079Z,20.26
2022-08-28T07:01:26.493Z,20.44
2022-08-28T07:05:28.662Z,20.87
2022-08-28T07:09:30.950Z,21.17
2022-08-28T07:13:36.640Z,21.41
2022-08-28T07:17:39.791Z,21.64
2022-08-28T07:21:44.311Z,21.85
2022-08-28T07:25:46.539Z,22.05
2022-08-28T07:29:49.284Z,22.28
2022-08-28T07:33:54.142Z,22.52
2022-08-28T07:37:57.525Z,22.70
2022-08-28T07:41:59.767Z,22.85
2022-08-28T07:46:07.073Z,22.91
2022-08-28T07:50:09.770Z,23.17
2022-08-28T07:54:17.745Z,23.33
2022-08-28T07:58:20.825Z,23.25
2022-08-28T08:02:22.935Z,23.39
2022-08-28T08:06:33.855Z,23.65
2022-08-28T08:10:39.402Z,23.66
2022-08-28T08:14:44.196Z,23.79
2022-08-28T08:18:48.698Z,23.79
2022-08-28T08:22:50.826Z,23.89
2022-08-28T08:27:00.366Z,23.99
2022-08-28T08:31:20.249Z,24.02
2022-08-28T08:35:22.415Z,24.17
2022-08-28T08:39:24.413Z,24.28
2022-08-28T08:43:30.230Z,24.20
2022-08-28T08:47:51.536Z,24.35
2022-08-28T08:52:21.638Z,24.64
2022-08-28T08:56:34.604Z,24.78
2022-08-28T09:01:01.147Z,24.85
2022-08-28T09:05:12.630Z,24.94
2022-08-28T09:09:21.546Z,25.11
2022-08-28T09:13:38.719Z,25.01
2022-08-28T09:18:26.707Z,25.06
2022-08-28T09:22:30.189Z,25.19
2022-08-28T09:26:32.215Z,25.36
2022-08-28T09:30:35.900Z,25.18
2022-08-28T09:34:39.307Z,25.37
2022-08-28T09:38:41.695Z,25.48
2022-08-28T09:43:23.617Z,25.60
2022-08-28T09:47:46.211Z,25.67
2022-08-28T09:51:48.996Z,25.77
2022-08-28T09:56:11.114Z,25.59
2022-08-28T10:00:14.929Z,25.66
2022-08-28T10:04:35.983Z,25.65
2022-08-28T10:08:57.527Z,25.78
2022-08-28T10:13:20.570Z,25.90
2022-08-28T10:17:42.040Z,26.08
2022-08-28T10:21:51.223Z,26.20
2022-08-28T10:26:16.656Z,26.21
2022-08-28T10:30:24.415Z,26.22
2022-08-28T10:35:15.330Z,26.30
2022-08-28T10:39:32.687Z,26.46
2022-08-28T10:43:43.337Z,26.48
2022-08-28T10:47:51.891Z,26.53
2022-08-28T10:52:09.047Z,26.55
2022-08-28T10:56:17.578Z,26.63
2022-08-28T11:00:23.106Z,26.91
2022-08-28T11:04:29.353Z,26.93
2022-08-28T11:08:44.433Z,27.02
2022-08-28T11:12:52.218Z,27.01
2022-08-28T11:16:59.207Z,27.10
2022-08-28T11:21:27.678Z,27.08
2022-08-28T11:25:48.411Z,27.17
2022-08-28T11:30:08.839Z,27.28
2022-08-28T11:34:49.182Z,27.47
2022-08-28T11:38:52.027Z,27.70
2022-08-28T11:43:17.067Z,27.60
2022-08-28T11:47:41.947Z,27.69
2022-08-28T11:51:50.757Z,27.93
2022-08-28T11:56:14.062Z,28.02
2022-08-28T12:00:51.758Z,27.95
2022-08-28T12:04:53.946Z,28.10
2022-08-28T12:08:58.938Z,28.35
2022-08-28T12:13:02.865Z,28.53
2022-08-28T12:17:26.856Z,28.41
2022-08-28T12:21:38.737Z,28.53
2022-08-28T12:25:44.225Z,28.61
2022-08-28T12:29:55.535Z,28.72
2022-08-28T12:34:04.229Z,28.82
2022-08-28T12:38:09.411Z,28.89
2022-08-28T12:42:24.401Z,28.81
2022-08-28T12:46:40.910Z,29.05
2022-08-28T12:50:43.582Z,29.29
2022-08-28T12:54:46.870Z,29.28
2022-08-28T12:58:49.552Z,29.57
2022-08-28T13:02:54.602Z,29.75
2022-08-28T13:07:17.601Z,29.84
2022-08-28T13:11:21.386Z,29.98
2022-08-28T13:15:42.527Z,29.87
2022-08-28T13:19:45.321Z,29.88
2022-08-28T13:23:54.249Z,29.67
2022-08-28T13:28:03.154Z,29.59
2022-08-28T13:32:08.453Z,29.52
2022-08-28T13:36:21.947Z,29.70
2022-08-28T13:44:56.929Z,30.18
2022-08-28T13:48:58.990Z,30.37
2022-08-28T13:53:01.754Z,30.20
2022-08-28T13:57:05.717Z,30.14
2022-08-28T14:01:08.084Z,29.54
2022-08-28T14:05:10.556Z,28.70
2022-08-28T14:09:15.482Z,28.19
2022-08-28T14:13:20.340Z,27.77
2022-08-28T14:17:22.616Z,27.20
2022-08-28T14:21:26.918Z,27.01
2022-08-28T14:25:29.042Z,26.84
2022-08-28T14:29:31.909Z,26.42
2022-08-28T14:33:37.020Z,26.16
2022-08-28T14:37:39.225Z,26.03
2022-08-28T14:41:46.927Z,25.76
2022-08-28T14:45:50.523Z,25.67
2022-08-28T14:49:52.528Z,25.60
2022-08-28T14:53:54.799Z,25.76
2022-08-28T14:57:57.123Z,25.81
2022-08-28T15:02:00.630Z,25.94
2022-08-28T15:06:04.407Z,25.73
2022-08-28T15:10:06.805Z,25.68
2022-08-28T15:14:11.103Z,25.40
2022-08-28T15:18:13.361Z,25.24
2022-08-28T15:22:15.458Z,24.93
2022-08-28T15:26:31.393Z,24.57
2022-08-28T15:30:33.655Z,24.31
2022-08-28T15:34:35.817Z,23.97
2022-08-28T15:38:56.710Z,23.70
2022-08-28T15:43:00.292Z,23.49
2022-08-28T15:47:03.219Z,23.40
2022-08-28T15:51:05.303Z,23.02
2022-08-28T15:55:07.992Z,22.80
2022-08-28T15:59:11.454Z,22.56
2022-08-28T16:03:14.086Z,22.30
2022-08-28T16:07:17.337Z,22.01
2022-08-28T16:11:23.052Z,21.77
2022-08-28T16:15:26.313Z,21.42
2022-08-28T16:19:28.766Z,21.27
2022-08-28T16:23:31.018Z,21.04
2022-08-28T16:27:33.341Z,20.80
2022-08-28T16:31:35.457Z,20.79
2022-08-28T16:35:49.215Z,20.86
2022-08-28T16:39:57.373Z,20.96
2022-08-28T16:43:59.855Z,21.06
2022-08-28T16:48:04.074Z,21.24
2022-08-28T16:52:06.159Z,21.37
2022-08-28T16:56:13.123Z,21.50
2022-08-28T17:00:15.384Z,21.56
2022-08-28T17:04:17.890Z,21.58
2022-08-28T17:08:20.008Z,21.55
2022-08-28T17:12:22.216Z,21.50
2022-08-28T17:16:25.742Z,21.56
2022-08-28T17:20:46.510Z,21.24
2022-08-28T17:24:48.698Z,20.86
2022-08-28T17:28:54.900Z,20.63
2022-08-28T17:32:57.212Z,20.45
2022-08-28T17:36:59.460Z,20.77
2022-08-28T17:41:06.585Z,20.93
2022-08-28T17:45:11.872Z,20.79
2022-08-28T17:49:15.464Z,20.68
2022-08-28T17:53:18.914Z,20.65
2022-08-28T17:57:20.918Z,20.33
2022-08-28T18:01:25.665Z,20.02
2022-08-28T18:05:27.765Z,20.10
2022-08-28T18:09:29.954Z,20.18
2022-08-28T18:13:33.446Z,20.14
2022-08-28T18:17:39.276Z,20.18
2022-08-28T18:21:41.655Z,20.18
2022-08-28T18:25:50.996Z,20.10
2022-08-28T18:29:55.226Z,19.79
2022-08-28T18:33:58.147Z,19.91
2022-08-28T18:38:02.877Z,19.94
2022-08-28T18:42:05.403Z,19.69
2022-08-28T18:46:14.180Z,19.61
2022-08-28T18:50:16.647Z,19.56
2022-08-28T18:54:20.531Z,19.32
2022-08-28T18:58:23.728Z,19.10
2022-08-28T19:02:27.792Z,19.11
2022-08-28T19:06:30.092Z,19.15
2022-08-28T19:10:34.782Z,19.09
2022-08-28T19:14:38.028Z,19.05
2022-08-28T19:18:40.272Z,19.12
2022-08-28T19:22:43.154Z,19.28
2022-08-28T19:26:46.310Z,19.33
2022-08-28T19:30:48.521Z,19.24
2022-08-28T19:34:50.855Z,19.22
2022-08-28T19:38:55.441Z,19.08
2022-08-28T19:42:57.581Z,19.02
2022-08-28T19:46:59.776Z,18.90
2022-08-28T19:51:17.338Z,18.90
2022-08-28T19:55:27.497Z,19.03
2022-08-28T19:59:29.586Z,19.08
2022-08-28T20:03:31.895Z,19.19
2022-08-28T20:07:33.951Z,18.99
2022-08-28T20:11:36.049Z,19.00
2022-08-28T20:15:41.984Z,19.01
2022-08-28T20:19:46.456Z,18.96
2022-08-28T20:23:48.634Z,18.96
2022-08-28T20:27:51.675Z,18.91
2022-08-28T20:31:54.234Z,18.73
2022-08-28T20:36:01.347Z,18.59
2022-08-28T20:40:09.836Z,18.48
2022-08-28T20:44:15.592Z,18.50
2022-08-28T20:48:17.684Z,18.28
2022-08-28T20:52:22.096Z,18.29
2022-08-28T20:56:27.235Z,18.42
2022-08-28T21:00:29.611Z,18.51
2022-08-28T21:04:38.803Z,18.37
2022-08-28T21:08:42.403Z,18.37
2022-08-28T21:12:44.549Z,18.38
2022-08-28T21:16:46.900Z,18.43
2022-08-28T21:20:49.213Z,18.26
2022-08-28T21:24:52.158Z,18.29
2022-08-28T21:28:54.820Z,18.38
2022-08-28T21:32:59.512Z,18.42
2022-08-28T21:37:04.061Z,18.22
2022-08-28T21:41:13.544Z,18.15
2022-08-28T21:45:15.607Z,17.99
2022-08-28T21:49:20.125Z,17.65
2022-08-28T21:53:28.466Z,17.61
2022-08-28T21:57:31.358Z,17.64
2022-08-28T22:01:33.899Z,17.64
2022-08-28T22:05:36.245Z,17.70
2022-08-28T22:09:38.748Z,17.71
2022-08-28T22:13:40.926Z,17.78
2022-08-28T22:17:43.570Z,17.89
2022-08-28T22:22:06.966Z,17.85
2022-08-28T22:26:14.671Z,17.80
2022-08-28T22:30:18.084Z,17.82
2022-08-28T22:34:20.907Z,17.82
2022-08-28T22:38:24.700Z,17.79
2022-08-28T22:42:27.151Z,17.90
2022-08-28T22:46:29.307Z,17.96
2022-08-28T22:50:31.669Z,18.01
2022-08-28T22:54:34.477Z,18.01
2022-08-28T22:58:36.764Z,18.01
2022-08-28T23:02:40.351Z,17.78
2022-08-28T23:06:42.465Z,17.53
2022-08-28T23:10:58.501Z,17.48
2022-08-28T23:15:04.466Z,17.47
2022-08-28T23:19:08.872Z,17.54
2022-08-28T23:23:12.003Z,17.64
2022-08-28T23:27:35.465Z,17.68
2022-08-28T23:31:37.281Z,17.68
2022-08-28T23:35:39.759Z,17.43
2022-08-28T23:39:42.315Z,17.24
2022-08-28T23:43:44.587Z,17.36
2022-08-28T23:47:47.421Z,17.45
2022-08-28T23:51:49.631Z,17.46
2022-08-28T23:55:54.342Z,17.43
2022-08-28T23:59:57.299Z,17.46
